createdAt,value
2022-10-18T00:01:55.148Z,16.10
2022-10-18T00:16:56.117Z,16.10
2022-10-18T00:34:22.655Z,16.00
2022-10-18T00:39:21.787Z,15.90
2022-10-18T00:44:56.470Z,15.90
2022-10-18T00:49:58.860Z,15.90
2022-10-18T00:52:33.014Z,13.90
2022-10-18T00:55:02.340Z,15.90
2022-10-18T01:04:58.528Z,15.60
2022-10-18T01:07:40.250Z,15.60
2022-10-18T01:10:21.242Z,15.50
2022-10-18T01:12:57.952Z,15.50
2022-10-18T01:15:31.591Z,15.40
2022-10-18T01:18:08.632Z,15.40
2022-10-18T01:21:18.704Z,15.40
2022-10-18T01:24:05.618Z,15.40
2022-10-18T01:26:47.813Z,15.40
2022-10-18T01:29:29.823Z,15.40
2022-10-18T01:32:02.709Z,15.40
2022-10-18T01:34:34.946Z,15.40
2022-10-18T01:37:05.809Z,15.40
2022-10-18T01:39:39.661Z,15.40
2022-10-18T01:42:12.647Z,15.40
2022-10-18T01:44:42.749Z,15.40
2022-10-18T01:47:14.942Z,15.40
2022-10-18T01:52:14.494Z,13.40
2022-10-18T01:54:48.350Z,15.40
2022-10-18T01:57:25.042Z,15.40
2022-10-18T01:59:59.414Z,15.30
2022-10-18T02:02:41.435Z,14.30
2022-10-18T02:05:19.210Z,15.30
2022-10-18T02:08:00.416Z,15.30
2022-10-18T02:10:44.663Z,15.30
2022-10-18T02:13:17.339Z,15.20
2022-10-18T02:15:49.648Z,15.20
2022-10-18T02:18:24.714Z,15.20
2022-10-18T02:20:53.958Z,15.10
2022-10-18T02:23:26.048Z,15.10
2022-10-18T02:25:55.103Z,15.00
2022-10-18T02:30:59.751Z,18.30
2022-10-18T02:33:35.438Z,15.10
2022-10-18T02:36:09.062Z,15.00
2022-10-18T02:46:04.741Z,15.00
2022-10-18T02:48:34.496Z,19.70
2022-10-18T03:05:55.357Z,15.00
2022-10-18T03:15:49.767Z,14.30
2022-10-18T03:23:16.300Z,14.90
2022-10-18T03:40:38.777Z,14.90
2022-10-18T03:57:59.282Z,14.80
2022-10-18T04:02:56.174Z,12.60
2022-10-18T04:12:52.565Z,16.80
2022-10-18T04:15:22.552Z,14.70
2022-10-18T04:20:19.456Z,19.40
2022-10-18T04:22:49.966Z,12.90
2022-10-18T04:32:45.216Z,14.80
2022-10-18T04:37:42.109Z,12.60
2022-10-18T04:40:11.458Z,14.70
2022-10-18T04:45:09.605Z,14.60
2022-10-18T04:50:10.266Z,12.50
2022-10-18T04:55:08.143Z,12.00
2022-10-18T05:02:59.595Z,14.50
2022-10-18T05:05:49.602Z,14.60
2022-10-18T05:20:42.189Z,14.50
2022-10-18T05:23:17.608Z,14.60
2022-10-18T05:26:16.156Z,14.50
2022-10-18T05:31:42.029Z,14.60
2022-10-18T05:34:24.809Z,12.10
2022-10-18T05:36:59.869Z,14.60
2022-10-18T05:41:56.489Z,13.70
2022-10-18T05:49:21.730Z,18.20
2022-10-18T05:51:49.785Z,13.80
2022-10-18T05:54:19.418Z,12.90
2022-10-18T05:56:47.491Z,15.80
2022-10-18T05:59:17.890Z,14.60
2022-10-18T06:01:47.550Z,12.20
2022-10-18T06:11:45.146Z,14.80
2022-10-18T06:24:08.176Z,12.60
2022-10-18T06:29:06.418Z,15.00
2022-10-18T06:34:03.144Z,19.90
2022-10-18T06:44:13.679Z,15.10
2022-10-18T06:59:18.375Z,15.20
2022-10-18T07:16:11.596Z,15.40
2022-10-18T07:22:20.093Z,14.20
2022-10-18T07:24:53.863Z,13.20
2022-10-18T07:27:24.453Z,13.70
2022-10-18T07:32:42.387Z,19.70
2022-10-18T07:40:09.757Z,20.50
2022-10-18T07:43:22.361Z,15.70
2022-10-18T07:45:55.449Z,15.80
2022-10-18T07:48:25.121Z,15.80
2022-10-18T07:50:54.080Z,15.90
2022-10-18T08:05:54.146Z,16.10
2022-10-18T08:08:23.437Z,16.10
2022-10-18T08:20:48.362Z,16.40
2022-10-18T08:38:16.563Z,16.60
2022-10-18T08:43:23.807Z,16.60
2022-10-18T08:45:53.709Z,16.60
2022-10-18T08:48:31.923Z,16.70
2022-10-18T08:51:03.889Z,16.70
2022-10-18T08:53:40.133Z,16.80
2022-10-18T08:56:14.828Z,16.90
2022-10-18T08:58:45.433Z,16.90
2022-10-18T09:01:36.415Z,17.00
2022-10-18T09:04:34.452Z,14.90
2022-10-18T09:07:20.055Z,17.30
2022-10-18T09:09:58.496Z,17.60
2022-10-18T09:12:42.916Z,17.90
2022-10-18T09:15:17.959Z,18.20
2022-10-18T09:18:06.288Z,18.50
2022-10-18T09:20:42.400Z,18.90
2022-10-18T09:23:19.829Z,19.20
2022-10-18T09:25:52.894Z,19.50
2022-10-18T09:28:29.622Z,19.80
2022-10-18T09:31:08.417Z,20.10
2022-10-18T09:33:48.018Z,20.30
2022-10-18T09:36:19.589Z,20.60
2022-10-18T09:38:51.341Z,18.60
2022-10-18T09:41:26.808Z,21.00
2022-10-18T09:44:00.012Z,21.20
2022-10-18T09:46:32.745Z,17.20
2022-10-18T09:49:05.887Z,21.50
2022-10-18T09:51:37.393Z,21.70
2022-10-18T09:54:17.150Z,21.80
2022-10-18T09:56:51.793Z,22.00
2022-10-18T09:59:33.770Z,22.10
2022-10-18T10:07:02.418Z,22.50
2022-10-18T10:10:38.228Z,22.60
2022-10-18T10:13:22.902Z,22.70
2022-10-18T10:15:55.889Z,22.90
2022-10-18T10:18:30.039Z,23.00
2022-10-18T10:21:01.469Z,23.10
2022-10-18T10:23:33.954Z,23.30
2022-10-18T10:26:05.158Z,23.40
2022-10-18T10:28:37.418Z,23.50
2022-10-18T10:31:22.111Z,23.60
2022-10-18T10:34:00.467Z,23.70
2022-10-18T10:39:08.446Z,23.80
2022-10-18T10:44:16.853Z,24.10
2022-10-18T10:46:49.631Z,24.20
2022-10-18T10:49:39.274Z,24.30
2022-10-18T10:55:05.694Z,24.40
2022-10-18T10:57:47.298Z,24.40
2022-10-18T11:00:37.550Z,24.50
2022-10-18T11:03:40.958Z,24.50
2022-10-18T11:07:30.022Z,24.50
2022-10-18T11:11:13.101Z,24.70
2022-10-18T11:18:34.669Z,24.90
2022-10-18T11:21:08.265Z,25.00
2022-10-18T11:23:38.664Z,23.70
2022-10-18T11:26:29.313Z,25.20
2022-10-18T11:29:27.545Z,25.40
2022-10-18T11:32:16.202Z,25.50
2022-10-18T11:35:16.475Z,25.60
2022-10-18T11:38:14.219Z,24.80
2022-10-18T11:41:01.659Z,25.80
2022-10-18T11:44:32.029Z,25.00
2022-10-18T11:47:15.389Z,26.10
2022-10-18T11:49:58.376Z,25.90
2022-10-18T11:53:14.453Z,26.30
2022-10-18T11:56:36.617Z,26.40
2022-10-18T11:59:21.282Z,26.50
2022-10-18T12:02:23.006Z,26.50
2022-10-18T12:05:22.096Z,26.00
2022-10-18T12:07:54.609Z,27.50
2022-10-18T12:10:37.880Z,25.60
2022-10-18T12:13:19.834Z,25.40
2022-10-18T12:15:51.098Z,25.20
2022-10-18T12:18:28.727Z,23.90
2022-10-18T12:21:36.209Z,24.90
2022-10-18T12:24:15.316Z,24.80
2022-10-18T12:27:00.281Z,24.70
2022-10-18T12:29:38.082Z,24.50
2022-10-18T12:32:12.906Z,24.40
2022-10-18T12:34:56.072Z,24.40
2022-10-18T12:38:13.503Z,24.30
2022-10-18T12:40:48.229Z,24.30
2022-10-18T12:43:37.152Z,24.30
2022-10-18T12:46:13.810Z,24.30
2022-10-18T12:49:41.409Z,24.30
2022-10-18T13:04:06.475Z,23.90
2022-10-18T13:07:17.351Z,23.90
2022-10-18T13:10:41.174Z,23.90
2022-10-18T13:14:00.239Z,23.90
2022-10-18T13:17:32.940Z,22.10
2022-10-18T13:20:26.489Z,24.10
2022-10-18T13:23:49.147Z,24.20
2022-10-18T13:26:39.080Z,24.20
2022-10-18T13:30:15.807Z,23.40
2022-10-18T13:33:15.820Z,24.30
2022-10-18T13:36:05.990Z,24.30
2022-10-18T13:39:11.731Z,24.40
2022-10-18T13:42:20.094Z,24.40
2022-10-18T13:45:17.724Z,24.50
2022-10-18T13:48:11.382Z,24.60
2022-10-18T13:50:56.000Z,24.60
2022-10-18T13:53:54.579Z,23.30
2022-10-18T13:56:47.745Z,24.60
2022-10-18T13:59:45.789Z,24.60
2022-10-18T14:02:51.001Z,24.60
2022-10-18T14:05:43.076Z,24.50
2022-10-18T14:08:18.697Z,22.80
2022-10-18T14:14:36.713Z,24.20
2022-10-18T14:20:49.019Z,25.90
2022-10-18T14:33:25.651Z,23.30
2022-10-18T14:36:18.208Z,23.10
2022-10-18T14:38:54.452Z,22.90
2022-10-18T14:41:35.447Z,24.00
2022-10-18T14:44:27.258Z,22.80
2022-10-18T14:47:03.332Z,22.80
2022-10-18T14:50:05.130Z,22.70
2022-10-18T14:52:52.918Z,22.60
2022-10-18T14:55:27.948Z,24.40
2022-10-18T14:58:16.408Z,22.50
2022-10-18T15:00:53.052Z,22.40
2022-10-18T15:03:23.411Z,22.40
2022-10-18T15:06:11.557Z,22.40
2022-10-18T15:09:08.600Z,21.00
2022-10-18T15:11:47.329Z,22.30
2022-10-18T15:14:31.464Z,22.30
2022-10-18T15:17:15.272Z,22.30
2022-10-18T15:20:23.366Z,22.30
2022-10-18T15:22:54.775Z,22.10
2022-10-18T15:25:40.331Z,22.20
2022-10-18T15:28:31.785Z,22.20
2022-10-18T15:33:34.971Z,22.00
2022-10-18T15:36:12.071Z,22.00
2022-10-18T15:41:39.805Z,22.00
2022-10-18T15:44:25.574Z,22.00
2022-10-18T15:47:13.776Z,22.10
2022-10-18T15:50:05.298Z,21.30
2022-10-18T15:52:43.230Z,22.00
2022-10-18T15:55:59.062Z,21.90
2022-10-18T15:58:30.037Z,21.90
2022-10-18T16:01:04.477Z,21.80
2022-10-18T16:06:18.955Z,21.80
2022-10-18T16:08:50.405Z,21.70
2022-10-18T16:11:27.454Z,21.70
2022-10-18T16:14:22.621Z,21.60
2022-10-18T16:17:23.422Z,21.60
2022-10-18T16:20:31.520Z,21.60
2022-10-18T16:23:36.990Z,21.50
2022-10-18T16:27:01.077Z,21.50
2022-10-18T16:30:29.926Z,21.50
2022-10-18T16:33:25.394Z,21.80
2022-10-18T16:37:04.209Z,21.40
2022-10-18T16:39:52.647Z,21.40
2022-10-18T16:45:41.524Z,21.30
2022-10-18T16:48:35.335Z,21.20
2022-10-18T16:56:31.369Z,21.10
2022-10-18T16:59:12.756Z,21.00
2022-10-18T17:02:59.570Z,20.90
2022-10-18T17:06:53.563Z,20.90
2022-10-18T17:13:30.221Z,20.80
2022-10-18T17:16:08.527Z,20.70
2022-10-18T17:28:44.645Z,20.60
2022-10-18T17:33:41.967Z,20.60
2022-10-18T17:39:06.357Z,20.60
2022-10-18T17:44:06.097Z,20.50
2022-10-18T17:51:31.277Z,20.70
2022-10-18T17:57:34.285Z,20.40
2022-10-18T18:00:34.526Z,20.30
2022-10-18T18:05:35.528Z,24.90
2022-10-18T18:10:58.985Z,20.20
2022-10-18T18:16:58.617Z,20.10
2022-10-18T18:22:01.749Z,19.80
2022-10-18T18:24:33.052Z,19.90
2022-10-18T18:32:38.184Z,19.90
2022-10-18T18:37:37.926Z,18.10
2022-10-18T18:40:07.175Z,19.90
2022-10-18T18:50:08.211Z,20.00
2022-10-18T18:52:51.372Z,19.90
2022-10-18T18:55:20.510Z,20.00
2022-10-18T18:57:50.829Z,20.00
2022-10-18T19:00:27.870Z,18.30
2022-10-18T19:03:38.673Z,19.90
2022-10-18T19:10:02.856Z,19.90
2022-10-18T19:28:37.990Z,19.90
2022-10-18T19:35:05.272Z,19.80
2022-10-18T19:45:05.358Z,19.70
2022-10-18T19:50:18.904Z,19.70
2022-10-18T19:57:17.263Z,19.60
2022-10-18T20:02:16.083Z,19.60
2022-10-18T20:19:41.517Z,18.40
2022-10-18T20:22:09.614Z,18.00
2022-10-18T20:29:37.238Z,17.70
2022-10-18T20:37:03.351Z,19.10
2022-10-18T20:42:02.828Z,19.10
2022-10-18T20:44:33.927Z,18.80
2022-10-18T20:47:01.988Z,19.10
2022-10-18T20:52:00.568Z,19.00
2022-10-18T20:54:30.044Z,17.50
2022-10-18T20:56:58.196Z,23.40
2022-10-18T20:59:26.300Z,17.90
2022-10-18T21:04:22.854Z,16.70
2022-10-18T21:06:50.985Z,18.70
2022-10-18T21:09:21.363Z,18.90
2022-10-18T21:11:53.811Z,18.90
2022-10-18T21:14:23.536Z,17.30
2022-10-18T21:16:53.035Z,17.60
2022-10-18T21:19:25.413Z,18.80
2022-10-18T21:22:43.797Z,17.10
2022-10-18T21:27:41.774Z,18.80
2022-10-18T21:32:43.968Z,17.10
2022-10-18T21:35:12.993Z,23.60
2022-10-18T21:40:12.793Z,18.60
2022-10-18T21:42:42.578Z,17.00
2022-10-18T21:50:08.976Z,17.20
2022-10-18T21:55:07.748Z,17.60
2022-10-18T22:00:08.611Z,18.30
2022-10-18T22:02:38.019Z,17.10
2022-10-18T22:05:08.384Z,22.80
2022-10-18T22:10:09.106Z,22.80
2022-10-18T22:15:08.566Z,18.00
2022-10-18T22:17:37.378Z,16.10
2022-10-18T22:20:06.904Z,17.50
2022-10-18T22:32:31.177Z,17.80
2022-10-18T22:49:51.876Z,17.60
2022-10-18T23:02:14.602Z,17.30
2022-10-18T23:07:12.678Z,16.20
2022-10-18T23:12:14.446Z,16.50
2022-10-18T23:24:38.726Z,17.50
2022-10-18T23:27:12.953Z,15.60
2022-10-18T23:32:10.040Z,22.20
2022-10-18T23:39:35.240Z,22.00
2022-10-18T23:42:04.892Z,17.50
2022-10-18T23:54:27.105Z,15.40
2022-10-18T23:56:55.256Z,15.30
2022-10-18T23:59:24.778Z,17.20
